createdAt,value
2023-11-18T00:01:11.418Z,6.79
2023-11-18T00:06:03.134Z,6.74
2023-11-18T00:10:55.216Z,6.66
2023-11-18T00:15:49.485Z,6.59
2023-11-18T00:20:41.300Z,6.53
2023-11-18T00:25:35.169Z,6.50
2023-11-18T00:30:27.034Z,6.47
2023-11-18T00:35:18.719Z,6.45
2023-11-18T00:40:10.859Z,6.42
2023-11-18T00:45:02.701Z,6.42
2023-11-18T00:49:55.174Z,6.42
2023-11-18T00:54:47.996Z,6.43
2023-11-18T00:59:43.351Z,6.41
2023-11-18T01:04:35.586Z,6.41
2023-11-18T01:09:28.297Z,6.40
2023-11-18T01:14:20.443Z,6.41
2023-11-18T01:19:12.106Z,6.44
2023-11-18T01:24:04.300Z,6.44
2023-11-18T01:28:56.849Z,6.47
2023-11-18T01:33:51.318Z,6.51
2023-11-18T01:38:43.343Z,6.51
2023-11-18T01:43:35.397Z,6.55
2023-11-18T01:48:28.081Z,6.57
2023-11-18T01:53:19.764Z,6.60
2023-11-18T01:58:12.293Z,6.63
2023-11-18T02:03:05.619Z,6.64
2023-11-18T02:07:58.535Z,6.66
2023-11-18T02:13:11.781Z,6.69
2023-11-18T02:18:07.183Z,6.71
2023-11-18T02:23:00.298Z,6.75
2023-11-18T02:27:52.159Z,6.76
2023-11-18T02:33:00.459Z,6.78
2023-11-18T02:37:56.038Z,6.81
2023-11-18T02:42:50.043Z,6.84
2023-11-18T02:47:41.902Z,6.89
2023-11-18T02:52:36.428Z,6.93
2023-11-18T02:57:28.833Z,6.99
2023-11-18T03:02:22.272Z,7.06
2023-11-18T03:07:13.960Z,7.11
2023-11-18T03:12:07.229Z,7.19
2023-11-18T03:16:59.571Z,7.24
2023-11-18T03:21:54.662Z,7.29
2023-11-18T03:26:46.341Z,7.34
2023-11-18T03:31:38.129Z,7.37
2023-11-18T03:36:29.822Z,7.42
2023-11-18T03:41:24.597Z,7.45
2023-11-18T03:46:16.965Z,7.49
2023-11-18T03:51:08.706Z,7.52
2023-11-18T03:56:00.663Z,7.54
2023-11-18T04:00:52.391Z,7.56
2023-11-18T04:05:44.124Z,7.62
2023-11-18T04:10:35.824Z,7.64
2023-11-18T04:15:28.179Z,7.67
2023-11-18T04:20:19.897Z,7.76
2023-11-18T04:25:12.856Z,7.81
2023-11-18T04:30:05.668Z,7.84
2023-11-18T04:34:57.419Z,7.90
2023-11-18T04:39:49.009Z,7.95
2023-11-18T04:44:40.681Z,7.99
2023-11-18T04:49:32.371Z,8.02
2023-11-18T04:54:24.056Z,8.04
2023-11-18T04:59:15.721Z,8.09
2023-11-18T05:04:09.536Z,8.11
2023-11-18T05:09:01.411Z,8.14
2023-11-18T05:13:53.230Z,8.18
2023-11-18T05:18:45.038Z,8.20
2023-11-18T05:23:37.145Z,8.23
2023-11-18T05:28:28.856Z,8.27
2023-11-18T05:33:21.463Z,8.30
2023-11-18T05:38:13.206Z,8.33
2023-11-18T05:43:07.678Z,8.36
2023-11-18T05:47:59.654Z,8.39
2023-11-18T05:52:52.196Z,8.44
2023-11-18T05:57:46.116Z,8.47
2023-11-18T06:02:40.811Z,8.49
2023-11-18T06:07:32.647Z,8.56
2023-11-18T06:12:24.313Z,8.63
2023-11-18T06:17:16.167Z,8.65
2023-11-18T06:22:07.932Z,8.69
2023-11-18T06:27:00.847Z,8.75
2023-11-18T06:31:52.681Z,8.80
2023-11-18T06:36:44.322Z,8.85
2023-11-18T06:41:36.205Z,8.88
2023-11-18T06:46:35.774Z,8.92
2023-11-18T06:51:28.973Z,8.96
2023-11-18T06:56:20.754Z,9.02
2023-11-18T07:01:18.471Z,9.07
2023-11-18T07:06:10.689Z,9.12
2023-11-18T07:11:02.903Z,9.14
2023-11-18T07:15:57.786Z,9.19
2023-11-18T07:20:50.467Z,9.23
2023-11-18T07:25:44.565Z,9.28
2023-11-18T07:30:38.177Z,9.30
2023-11-18T07:35:30.908Z,9.35
2023-11-18T07:40:29.327Z,9.37
2023-11-18T07:45:24.689Z,9.42
2023-11-18T07:50:17.578Z,9.46
2023-11-18T07:55:12.092Z,9.52
2023-11-18T08:00:10.148Z,9.55
2023-11-18T08:05:01.866Z,9.62
2023-11-18T08:09:53.958Z,9.65
2023-11-18T08:14:45.589Z,9.70
2023-11-18T08:19:37.301Z,9.75
2023-11-18T08:24:30.499Z,9.82
2023-11-18T08:29:22.673Z,9.90
2023-11-18T08:34:15.280Z,9.94
2023-11-18T08:39:08.604Z,10.02
2023-11-18T08:44:14.229Z,10.11
2023-11-18T08:49:13.842Z,10.16
2023-11-18T08:54:23.397Z,10.21
2023-11-18T08:59:18.122Z,10.28
2023-11-18T09:04:11.338Z,10.35
2023-11-18T09:09:07.388Z,10.41
2023-11-18T09:14:02.024Z,10.47
2023-11-18T09:18:54.417Z,10.54
2023-11-18T09:23:49.209Z,10.61
2023-11-18T09:28:41.580Z,10.69
2023-11-18T09:33:35.105Z,10.75
2023-11-18T09:38:30.972Z,10.81
2023-11-18T09:43:25.392Z,10.86
2023-11-18T09:48:21.549Z,10.91
2023-11-18T09:53:13.362Z,10.98
2023-11-18T09:58:10.155Z,11.02
2023-11-18T10:03:02.323Z,11.08
2023-11-18T10:07:54.712Z,11.14
2023-11-18T10:12:53.762Z,11.20
2023-11-18T10:18:08.127Z,11.26
2023-11-18T10:23:14.151Z,11.31
2023-11-18T10:28:06.030Z,11.37
2023-11-18T10:33:06.531Z,11.44
2023-11-18T10:38:00.362Z,11.55
2023-11-18T10:42:54.054Z,11.62
2023-11-18T10:47:47.822Z,11.69
2023-11-18T10:52:42.546Z,11.80
2023-11-18T10:57:37.017Z,11.88
2023-11-18T11:02:36.386Z,11.93
2023-11-18T11:07:31.067Z,11.95
2023-11-18T11:12:25.941Z,11.99
2023-11-18T11:17:28.438Z,12.07
2023-11-18T11:22:25.803Z,12.11
2023-11-18T11:27:51.135Z,12.16
2023-11-18T11:32:53.060Z,12.21
2023-11-18T11:37:45.089Z,12.26
2023-11-18T11:42:37.116Z,12.31
2023-11-18T11:47:37.871Z,12.36
2023-11-18T11:52:39.110Z,12.43
2023-11-18T11:57:34.559Z,12.46
2023-11-18T12:02:30.819Z,12.47
2023-11-18T12:07:24.517Z,12.50
2023-11-18T12:12:20.805Z,12.52
2023-11-18T12:17:15.937Z,12.53
2023-11-18T12:22:14.376Z,12.58
2023-11-18T12:27:11.988Z,12.60
2023-11-18T12:32:03.977Z,12.58
2023-11-18T12:37:32.716Z,12.61
2023-11-18T12:42:59.668Z,12.58
2023-11-18T12:47:56.215Z,12.54
2023-11-18T12:52:49.192Z,12.53
2023-11-18T12:57:47.595Z,12.52
2023-11-18T13:02:40.534Z,12.58
2023-11-18T13:07:32.451Z,12.64
2023-11-18T13:12:24.853Z,12.73
2023-11-18T13:17:17.961Z,12.75
2023-11-18T13:22:14.923Z,12.80
2023-11-18T13:27:08.121Z,12.83
2023-11-18T13:32:01.652Z,12.88
2023-11-18T13:36:53.328Z,12.90
2023-11-18T13:41:46.182Z,12.92
2023-11-18T13:46:42.875Z,12.93
2023-11-18T13:51:36.736Z,12.96
2023-11-18T13:56:29.743Z,12.96
2023-11-18T14:01:22.864Z,12.97
2023-11-18T14:06:18.545Z,12.97
2023-11-18T14:11:16.392Z,12.99
2023-11-18T14:16:11.128Z,13.00
2023-11-18T14:21:03.056Z,13.01
2023-11-18T14:25:54.818Z,13.00
2023-11-18T14:30:46.608Z,13.02
2023-11-18T14:35:38.992Z,13.01
2023-11-18T14:40:30.616Z,12.99
2023-11-18T14:45:22.801Z,12.93
2023-11-18T14:50:25.177Z,12.91
2023-11-18T14:55:18.599Z,12.88
2023-11-18T15:00:13.590Z,12.84
2023-11-18T15:05:10.341Z,12.84
2023-11-18T15:10:02.174Z,12.82
2023-11-18T15:14:53.876Z,12.82
2023-11-18T15:19:45.667Z,12.81
2023-11-18T15:24:37.405Z,12.79
2023-11-18T15:29:34.521Z,12.77
2023-11-18T15:34:26.516Z,12.73
2023-11-18T15:39:18.301Z,12.70
2023-11-18T15:44:14.255Z,12.66
2023-11-18T15:49:05.997Z,12.64
2023-11-18T15:53:57.778Z,12.60
2023-11-18T15:58:50.102Z,12.56
2023-11-18T16:03:42.516Z,12.52
2023-11-18T16:08:35.891Z,12.46
2023-11-18T16:13:27.563Z,12.40
2023-11-18T16:18:19.369Z,12.39
2023-11-18T16:23:11.550Z,12.37
2023-11-18T16:28:04.343Z,12.31
2023-11-18T16:33:00.194Z,12.25
2023-11-18T16:37:52.492Z,12.20
2023-11-18T16:42:49.237Z,12.15
2023-11-18T16:47:41.713Z,12.08
2023-11-18T16:52:33.455Z,12.02
2023-11-18T16:57:27.145Z,12.01
2023-11-18T17:02:23.424Z,12.00
2023-11-18T17:07:15.261Z,11.99
2023-11-18T17:12:07.613Z,11.97
2023-11-18T17:16:59.517Z,11.96
2023-11-18T17:21:52.888Z,11.95
2023-11-18T17:26:45.248Z,11.92
2023-11-18T17:31:38.659Z,11.90
2023-11-18T17:36:31.324Z,11.86
2023-11-18T17:41:23.119Z,11.87
2023-11-18T17:46:15.322Z,11.83
2023-11-18T17:51:07.204Z,11.79
2023-11-18T17:55:59.944Z,11.77
2023-11-18T18:00:51.799Z,11.77
2023-11-18T18:05:44.103Z,11.73
2023-11-18T18:10:35.780Z,11.72
2023-11-18T18:15:27.835Z,11.70
2023-11-18T18:20:21.443Z,11.68
2023-11-18T18:25:13.647Z,11.62
2023-11-18T18:30:06.988Z,11.62
2023-11-18T18:34:59.249Z,11.61
2023-11-18T18:39:53.832Z,11.55
2023-11-18T18:44:45.667Z,11.53
2023-11-18T18:49:37.699Z,11.51
2023-11-18T18:54:29.677Z,11.50
2023-11-18T18:59:21.324Z,11.49
2023-11-18T19:04:13.131Z,11.46
2023-11-18T19:09:05.476Z,11.46
2023-11-18T19:13:57.291Z,11.47
2023-11-18T19:18:48.962Z,11.44
2023-11-18T19:23:41.304Z,11.43
2023-11-18T19:28:33.081Z,11.44
2023-11-18T19:33:24.862Z,11.44
2023-11-18T19:38:16.610Z,11.42
2023-11-18T19:43:08.352Z,11.38
2023-11-18T19:48:00.062Z,11.37
2023-11-18T19:52:51.743Z,11.35
2023-11-18T19:57:43.449Z,11.33
2023-11-18T20:02:35.950Z,11.32
2023-11-18T20:07:28.400Z,11.30
2023-11-18T20:12:20.075Z,11.29
2023-11-18T20:17:11.929Z,11.27
2023-11-18T20:22:04.213Z,11.26
2023-11-18T20:26:55.901Z,11.23
2023-11-18T20:31:47.603Z,11.23
2023-11-18T20:36:39.488Z,11.22
2023-11-18T20:41:31.593Z,11.20
2023-11-18T20:46:23.281Z,11.19
2023-11-18T20:51:15.619Z,11.11
2023-11-18T20:56:08.051Z,11.07
2023-11-18T21:00:59.984Z,11.05
2023-11-18T21:05:51.813Z,10.98
2023-11-18T21:10:44.479Z,10.91
2023-11-18T21:15:37.818Z,10.89
2023-11-18T21:20:29.598Z,10.86
2023-11-18T21:25:21.327Z,10.81
2023-11-18T21:30:13.195Z,10.81
2023-11-18T21:35:05.161Z,10.81
2023-11-18T21:39:56.969Z,10.82
2023-11-18T21:44:48.627Z,10.82
2023-11-18T21:49:40.260Z,10.82
2023-11-18T21:54:34.440Z,10.81
2023-11-18T21:59:27.519Z,10.79
2023-11-18T22:04:19.491Z,10.79
2023-11-18T22:09:11.337Z,10.77
2023-11-18T22:14:04.359Z,10.77
2023-11-18T22:18:56.092Z,10.79
2023-11-18T22:23:47.786Z,10.79
2023-11-18T22:28:40.481Z,10.82
2023-11-18T22:33:32.162Z,10.85
2023-11-18T22:38:24.196Z,10.86
2023-11-18T22:43:15.920Z,10.83
2023-11-18T22:48:07.922Z,10.83
2023-11-18T22:52:59.691Z,10.80
2023-11-18T22:57:51.385Z,10.79
2023-11-18T23:02:43.414Z,10.77
2023-11-18T23:07:35.264Z,10.71
2023-11-18T23:12:27.752Z,10.68
2023-11-18T23:17:22.515Z,10.67
2023-11-18T23:22:14.833Z,10.65
2023-11-18T23:27:08.215Z,10.66
2023-11-18T23:32:00.450Z,10.65
2023-11-18T23:36:52.342Z,10.61
2023-11-18T23:41:44.383Z,10.64
2023-11-18T23:46:36.188Z,10.62
2023-11-18T23:51:29.364Z,10.63
2023-11-18T23:56:21.006Z,10.62
